Time;durP1;ratioP1;P1;durP2;ratioP2;P2;SDS_P1;SDS_P2;PMS_P1;PMS_P2;Temp;Humidity;BMP_temperature;BMP_pressure;BME280_temperature;BME280_humidity;BME280_pressure;Samples;Min_cycle;Max_cycle;Signal;HPM_P1;HPM_P2
2022/12/14 00:01:08;;;;;;;49.72;22.30;;;0.00;67.80;;;;;;2316212;58;21096;-48
2022/12/14 00:03:35;;;;;;;48.22;22.90;;;0.10;67.80;;;;;;2317094;58;21605;-48
2022/12/14 00:06:11;;;;;;;45.80;21.17;;;0.00;67.60;;;;;;2317270;58;21036;-47
2022/12/14 00:08:39;;;;;;;47.15;22.13;;;0.00;67.70;;;;;;2317524;58;21097;-47
2022/12/14 00:11:06;;;;;;;46.78;21.75;;;0.00;67.70;;;;;;2317315;58;21104;-48
2022/12/14 00:13:34;;;;;;;46.90;21.15;;;0.00;67.70;;;;;;2316933;58;21057;-49
2022/12/14 00:16:06;;;;;;;49.55;22.40;;;0.00;67.80;;;;;;2315506;58;21166;-47
2022/12/14 00:18:37;;;;;;;32.60;15.35;;;0.00;67.80;;;;;;2316120;58;21061;-49
2022/12/14 00:21:06;;;;;;;47.58;20.65;;;0.00;67.60;;;;;;2316202;58;21588;-48
2022/12/14 00:23:35;;;;;;;43.45;19.00;;;0.00;67.50;;;;;;2315867;58;21116;-49
2022/12/14 00:26:10;;;;;;;46.53;22.23;;;0.00;67.60;;;;;;2316125;58;21596;-49
2022/12/14 00:28:38;;;;;;;40.58;18.65;;;0.00;67.80;;;;;;2309614;58;21604;-47
2022/12/14 00:31:06;;;;;;;43.03;19.75;;;-0.10;67.70;;;;;;2298152;58;21529;-47
2022/12/14 00:33:33;;;;;;;41.75;19.50;;;-0.10;67.80;;;;;;2298378;58;21533;-46
2022/12/14 00:36:01;;;;;;;43.63;19.30;;;-0.10;67.80;;;;;;2298229;58;21112;-48
2022/12/14 00:38:29;;;;;;;42.55;20.00;;;0.00;67.90;;;;;;2298057;58;21668;-49
2022/12/14 00:40:56;;;;;;;43.97;20.67;;;-0.10;67.80;;;;;;2298096;58;21192;-48
2022/12/14 00:43:24;;;;;;;43.28;19.42;;;-0.10;67.90;;;;;;2297984;58;21581;-47
2022/12/14 00:45:52;;;;;;;41.35;19.30;;;-0.10;67.90;;;;;;2297691;58;21045;-48
2022/12/14 00:48:20;;;;;;;41.35;19.67;;;-0.10;67.90;;;;;;2298017;58;21637;-49
2022/12/14 00:50:49;;;;;;;41.33;19.83;;;-0.10;67.80;;;;;;2298110;58;21688;-49
2022/12/14 00:53:16;;;;;;;37.28;19.48;;;-0.10;68.00;;;;;;2297399;58;21610;-49
2022/12/14 00:55:45;;;;;;;42.60;19.08;;;-0.10;68.00;;;;;;2297892;58;21045;-48
2022/12/14 00:58:14;;;;;;;38.47;18.80;;;-0.10;67.90;;;;;;2299168;58;21589;-49
2022/12/14 01:00:43;;;;;;;37.83;17.90;;;-0.10;68.00;;;;;;2299286;58;21044;-48
2022/12/14 01:03:11;;;;;;;38.47;17.90;;;-0.20;67.90;;;;;;2298961;58;21022;-47
2022/12/14 01:05:38;;;;;;;39.92;20.20;;;-0.20;68.00;;;;;;2298979;58;21160;-48
2022/12/14 01:08:06;;;;;;;41.70;19.58;;;-0.10;68.00;;;;;;2297794;58;21545;-48
2022/12/14 01:10:33;;;;;;;39.70;17.73;;;-0.10;68.00;;;;;;2297758;58;21544;-48
2022/12/14 01:13:00;;;;;;;42.65;19.25;;;-0.10;68.00;;;;;;2298140;58;21049;-49
2022/12/14 01:15:28;;;;;;;39.20;18.12;;;-0.10;68.00;;;;;;2297672;58;21041;-47
2022/12/14 01:17:55;;;;;;;40.88;18.92;;;-0.10;67.80;;;;;;2298049;58;21053;-51
2022/12/14 01:20:22;;;;;;;43.63;19.45;;;-0.20;67.70;;;;;;2298696;58;21136;-47
2022/12/14 01:22:54;;;;;;;40.65;19.15;;;-0.20;67.70;;;;;;2298501;58;21061;-50
2022/12/14 01:25:21;;;;;;;39.90;18.85;;;-0.20;67.60;;;;;;2298865;58;21532;-47
2022/12/14 01:27:48;;;;;;;42.25;19.45;;;-0.20;67.50;;;;;;2298201;58;21533;-47
2022/12/14 01:30:18;;;;;;;45.97;21.17;;;-0.20;67.50;;;;;;2298192;58;21069;-48
2022/12/14 01:32:45;;;;;;;42.92;18.70;;;-0.20;67.50;;;;;;2298072;58;21529;-48
2022/12/14 01:35:12;;;;;;;37.42;18.37;;;-0.20;67.60;;;;;;2298135;58;21671;-48
2022/12/14 01:37:39;;;;;;;41.28;18.85;;;-0.20;67.60;;;;;;2298336;58;21648;-48
2022/12/14 01:40:09;;;;;;;43.90;19.48;;;-0.20;67.70;;;;;;2298481;58;21073;-48
2022/12/14 01:42:37;;;;;;;47.05;20.30;;;-0.20;67.60;;;;;;2299158;58;21026;-49
2022/12/14 01:45:15;;;;;;;37.33;17.55;;;-0.20;67.50;;;;;;2299309;58;21602;-48
2022/12/14 01:47:48;;;;;;;34.42;16.75;;;-0.20;67.40;;;;;;2299481;58;21497;-47
2022/12/14 01:50:24;;;;;;;37.72;17.25;;;-0.20;67.30;;;;;;2299382;58;21569;-48
2022/12/14 01:52:55;;;;;;;40.50;19.25;;;-0.30;67.20;;;;;;2299465;58;21033;-51
2022/12/14 01:55:26;;;;;;;38.38;17.25;;;-0.20;67.30;;;;;;2298449;58;21049;-48
2022/12/14 01:57:57;;;;;;;37.97;18.37;;;-0.30;67.30;;;;;;2297938;58;21058;-50
2022/12/14 02:00:24;;;;;;;46.75;20.62;;;-0.30;67.30;;;;;;2297734;58;21033;-50
2022/12/14 02:02:55;;;;;;;39.00;18.55;;;-0.30;67.30;;;;;;2297836;58;22155;-47
2022/12/14 02:05:24;;;;;;;42.42;18.87;;;-0.30;67.30;;;;;;2298015;58;21041;-51
2022/12/14 02:07:54;;;;;;;40.08;18.87;;;-0.30;67.40;;;;;;2297100;58;21637;-48
2022/12/14 02:10:25;;;;;;;36.45;17.98;;;-0.30;67.40;;;;;;2298933;58;21128;-48
2022/12/14 02:12:58;;;;;;;43.95;19.50;;;-0.30;67.40;;;;;;2298873;58;21129;-47
2022/12/14 02:15:25;;;;;;;39.83;18.23;;;-0.30;67.30;;;;;;2297986;58;21548;-48
2022/12/14 02:17:52;;;;;;;38.22;17.83;;;-0.30;67.20;;;;;;2297991;58;21057;-48
2022/12/14 02:20:21;;;;;;;38.40;17.42;;;-0.40;67.10;;;;;;2298366;58;21121;-47
2022/12/14 02:23:31;;;;;;;39.42;18.08;;;-0.40;67.10;;;;;;2297904;58;22601;-50
2022/12/14 02:26:24;;;;;;;37.17;17.45;;;-0.40;67.10;;;;;;2297778;58;21542;-49
2022/12/14 02:29:29;;;;;;;37.55;17.52;;;-0.40;67.00;;;;;;2297953;58;21696;-47
2022/12/14 02:32:08;;;;;;;38.05;18.85;;;-0.40;67.00;;;;;;2298329;58;21101;-47
2022/12/14 02:34:45;;;;;;;34.63;16.73;;;-0.50;66.80;;;;;;2299285;58;21029;-48
2022/12/14 02:37:20;;;;;;;38.85;17.92;;;-0.50;66.80;;;;;;2298132;58;21048;-47
2022/12/14 02:39:59;;;;;;;38.53;18.33;;;-0.50;66.90;;;;;;2299048;58;21561;-47
2022/12/14 02:42:38;;;;;;;39.40;18.45;;;-0.50;66.80;;;;;;2299181;58;21613;-47
2022/12/14 02:45:10;;;;;;;35.05;17.60;;;-0.50;66.70;;;;;;2299038;58;21029;-47
2022/12/14 02:47:45;;;;;;;33.97;17.58;;;-0.60;66.70;;;;;;2298397;58;21608;-47
2022/12/14 02:50:21;;;;;;;36.45;17.62;;;-0.60;66.70;;;;;;2297714;58;21033;-51
2022/12/14 02:52:57;;;;;;;35.95;16.77;;;-0.60;66.70;;;;;;2297970;58;21631;-50
2022/12/14 02:58:11;;;;;;;43.58;18.95;;;-0.60;66.80;;;;;;2354213;57;22062;-47
2022/12/14 03:00:38;;;;;;;39.67;17.20;;;-0.70;66.80;;;;;;2345707;57;21926;-50
2022/12/14 03:03:06;;;;;;;33.33;16.48;;;-0.70;67.10;;;;;;2347186;57;21059;-49
2022/12/14 03:05:34;;;;;;;37.65;17.95;;;-0.70;66.30;;;;;;2346359;57;21046;-52
2022/12/14 03:08:05;;;;;;;36.28;17.05;;;-0.70;67.00;;;;;;2345820;57;21446;-47
2022/12/14 03:10:38;;;;;;;38.17;18.45;;;-0.70;66.90;;;;;;2345635;57;21506;-50
2022/12/14 03:13:12;;;;;;;39.70;17.83;;;-0.70;66.90;;;;;;2345013;57;21513;-51
2022/12/14 03:15:43;;;;;;;40.63;18.65;;;-0.70;66.90;;;;;;2345350;57;21117;-49
2022/12/14 03:18:14;;;;;;;46.50;17.27;;;-0.70;66.80;;;;;;2344184;57;21050;-48
2022/12/14 03:20:44;;;;;;;36.30;16.35;;;-0.80;66.80;;;;;;2345722;57;21054;-46
2022/12/14 03:23:14;;;;;;;35.33;17.15;;;-0.80;66.90;;;;;;2346368;57;21633;-49
2022/12/14 03:25:45;;;;;;;36.63;17.00;;;-0.80;67.00;;;;;;2346473;57;21567;-46
2022/12/14 03:28:17;;;;;;;38.08;17.17;;;-0.80;67.10;;;;;;2346800;57;21010;-49
2022/12/14 03:30:49;;;;;;;38.88;17.00;;;-0.90;67.20;;;;;;2346137;57;21000;-49
2022/12/14 03:33:20;;;;;;;34.00;15.95;;;-0.90;67.20;;;;;;2346064;57;21018;-49
2022/12/14 03:35:55;;;;;;;38.75;16.30;;;-0.90;67.20;;;;;;2346249;57;21033;-46
2022/12/14 03:38:31;;;;;;;37.00;17.62;;;-0.90;67.20;;;;;;2345504;57;21054;-46
2022/12/14 03:41:07;;;;;;;37.53;17.15;;;-0.90;67.10;;;;;;2345409;57;21101;-49
2022/12/14 03:43:59;;;;;;;38.70;15.98;;;-0.90;67.00;;;;;;2345871;56;21117;-45
2022/12/14 03:46:35;;;;;;;40.80;18.70;;;-0.90;66.80;;;;;;2268051;59;21062;-50
2022/12/14 03:49:11;;;;;;;35.38;16.35;;;-0.90;66.70;;;;;;2267701;59;21617;-47
2022/12/14 03:51:54;;;;;;;37.00;17.35;;;-0.90;66.90;;;;;;2268737;59;21086;-46
2022/12/14 03:54:26;;;;;;;36.67;17.85;;;-0.90;66.80;;;;;;2278131;58;21619;-49
2022/12/14 03:56:57;;;;;;;34.83;17.08;;;-1.00;66.80;;;;;;2293319;58;21060;-48
2022/12/14 03:59:31;;;;;;;38.42;17.62;;;-1.00;66.80;;;;;;2294269;58;22144;-48
2022/12/14 04:02:04;;;;;;;35.67;17.08;;;-1.00;66.80;;;;;;2293436;58;21068;-47
2022/12/14 04:04:39;;;;;;;35.33;17.12;;;-1.00;66.90;;;;;;2293728;58;21076;-53
2022/12/14 04:07:13;;;;;;;37.72;16.90;;;-1.00;66.80;;;;;;2293583;58;21717;-47
2022/12/14 04:09:48;;;;;;;37.55;17.87;;;-1.00;66.80;;;;;;2292325;58;21163;-51
2022/12/14 04:20:48;;;;;;;39.40;17.20;;;-1.10;66.30;;;;;;2529970;54;20948;-46
2022/12/14 04:26:03;;;;;;;39.90;16.33;;;-1.10;66.20;;;;;;2293559;58;21060;-48
2022/12/14 04:31:27;;;;;;;37.80;16.65;;;-1.10;66.10;;;;;;2292399;58;21020;-50
2022/12/14 04:33:57;;;;;;;38.95;16.50;;;-1.20;66.20;;;;;;2292988;58;21556;-50
2022/12/14 04:36:29;;;;;;;34.20;15.48;;;-1.20;66.30;;;;;;2292243;58;21673;-48
2022/12/14 04:39:00;;;;;;;35.67;15.85;;;-1.20;66.40;;;;;;2292921;58;21702;-51
2022/12/14 04:41:32;;;;;;;34.33;16.30;;;-1.20;66.40;;;;;;2293316;58;21076;-47
2022/12/14 04:44:05;;;;;;;36.30;15.90;;;-1.20;66.40;;;;;;2294040;58;21608;-48
2022/12/14 04:46:36;;;;;;;38.17;16.10;;;-1.20;66.40;;;;;;2293253;58;21532;-48
2022/12/14 04:49:11;;;;;;;36.88;15.90;;;-1.20;66.40;;;;;;2292880;58;21180;-49
2022/12/14 04:51:48;;;;;;;36.97;15.93;;;-1.20;66.50;;;;;;2292557;58;21552;-50
2022/12/14 04:54:21;;;;;;;37.05;15.77;;;-1.30;66.40;;;;;;2292895;58;21068;-49
2022/12/14 04:56:54;;;;;;;34.65;16.42;;;-1.20;66.50;;;;;;2293221;58;21564;-48
2022/12/14 04:59:23;;;;;;;33.13;15.88;;;-1.30;66.50;;;;;;2293254;58;22244;-50
2022/12/14 05:01:58;;;;;;;38.45;16.77;;;-1.30;66.60;;;;;;2292628;58;21076;-49
2022/12/14 05:04:36;;;;;;;32.90;15.80;;;-1.30;66.50;;;;;;2293139;58;21080;-49
2022/12/14 05:07:14;;;;;;;36.72;17.25;;;-1.30;66.50;;;;;;2293437;58;21044;-53
2022/12/14 05:09:50;;;;;;;35.22;17.17;;;-1.30;66.70;;;;;;2293853;58;21060;-47
2022/12/14 05:12:22;;;;;;;34.33;15.88;;;-1.30;66.70;;;;;;2294529;58;21667;-52
2022/12/14 05:14:53;;;;;;;39.40;18.58;;;-1.40;66.70;;;;;;2294052;58;21532;-46
2022/12/14 05:17:21;;;;;;;37.92;18.02;;;-1.40;66.80;;;;;;2293527;58;21076;-47
2022/12/14 05:19:49;;;;;;;41.45;17.85;;;-1.40;67.60;;;;;;2290534;58;21064;-51
2022/12/14 05:22:17;;;;;;;41.22;17.90;;;-1.40;66.90;;;;;;2291375;58;21120;-49
2022/12/14 05:24:44;;;;;;;37.42;17.40;;;-1.40;66.90;;;;;;2292215;58;21599;-50
2022/12/14 05:27:12;;;;;;;35.45;16.87;;;-1.40;66.90;;;;;;2293350;58;21635;-48
2022/12/14 05:29:39;;;;;;;32.40;15.20;;;-1.30;67.00;;;;;;2293582;58;21080;-50
2022/12/14 05:32:09;;;;;;;35.78;15.80;;;-1.40;67.00;;;;;;2293671;58;21131;-47
2022/12/14 05:34:36;;;;;;;34.58;15.45;;;-1.30;67.00;;;;;;2293444;58;22205;-49
2022/12/14 05:37:03;;;;;;;41.90;20.27;;;-1.30;66.90;;;;;;2293431;58;21044;-48
2022/12/14 05:39:30;;;;;;;41.92;16.40;;;-1.30;66.90;;;;;;2292676;58;21643;-48
2022/12/14 05:41:58;;;;;;;37.28;17.35;;;-1.30;66.90;;;;;;2293007;58;21138;-48
2022/12/14 05:44:25;;;;;;;39.10;18.30;;;-1.40;66.80;;;;;;2293291;58;21064;-50
2022/12/14 05:46:52;;;;;;;38.28;17.08;;;-1.30;66.70;;;;;;2292728;58;21560;-46
2022/12/14 05:49:20;;;;;;;37.80;18.48;;;-1.30;66.60;;;;;;2292554;58;21095;-48
2022/12/14 05:51:48;;;;;;;37.88;18.15;;;-1.30;66.70;;;;;;2292849;58;21072;-50
2022/12/14 05:54:15;;;;;;;43.30;18.98;;;-1.30;66.60;;;;;;2292479;58;21063;-48
2022/12/14 05:56:42;;;;;;;45.25;20.83;;;-1.40;66.40;;;;;;2293743;58;21052;-47
2022/12/14 05:59:14;;;;;;;38.33;18.40;;;-1.40;66.30;;;;;;2293928;58;21040;-49
2022/12/14 06:01:41;;;;;;;42.78;20.88;;;-1.40;66.30;;;;;;2293948;58;21649;-48
2022/12/14 06:04:09;;;;;;;48.15;19.23;;;-1.40;66.40;;;;;;2293989;58;21131;-49
2022/12/14 06:06:36;;;;;;;46.78;18.70;;;-1.40;66.30;;;;;;2293906;58;21113;-47
2022/12/14 06:09:06;;;;;;;44.08;19.85;;;-1.40;66.30;;;;;;2294346;58;21599;-49
2022/12/14 06:11:37;;;;;;;43.10;19.85;;;-1.40;66.30;;;;;;2292752;58;21539;-49
2022/12/14 06:14:04;;;;;;;41.95;19.27;;;-1.40;66.20;;;;;;2293111;58;22117;-48
2022/12/14 06:16:31;;;;;;;43.80;19.77;;;-1.40;66.20;;;;;;2292469;58;21056;-49
2022/12/14 06:19:00;;;;;;;44.30;19.33;;;-1.50;66.10;;;;;;2292826;58;21624;-49
2022/12/14 06:21:28;;;;;;;40.10;19.00;;;-1.50;66.30;;;;;;2293180;58;21969;-47
2022/12/14 06:23:57;;;;;;;42.38;18.50;;;-1.50;66.20;;;;;;2293097;58;21093;-46
2022/12/14 06:26:25;;;;;;;43.42;19.52;;;-1.50;66.30;;;;;;2293754;58;21056;-48
2022/12/14 06:28:53;;;;;;;44.80;19.58;;;-1.50;66.30;;;;;;2292704;58;21555;-47
2022/12/14 06:31:21;;;;;;;47.55;20.58;;;-1.50;66.30;;;;;;2292466;58;21547;-50
2022/12/14 06:33:50;;;;;;;43.67;18.92;;;-1.50;66.30;;;;;;2292729;58;21076;-45
2022/12/14 06:36:21;;;;;;;42.70;19.37;;;-1.50;66.50;;;;;;2293323;58;21195;-44
2022/12/14 06:38:48;;;;;;;45.35;21.12;;;-1.50;66.60;;;;;;2293199;58;21055;-44
2022/12/14 06:41:16;;;;;;;45.90;20.48;;;-1.60;66.60;;;;;;2293413;58;21107;-49
2022/12/14 06:43:43;;;;;;;43.20;20.17;;;-1.60;66.60;;;;;;2293061;58;21542;-45
2022/12/14 06:46:12;;;;;;;42.78;20.50;;;-1.60;66.50;;;;;;2292538;58;21623;-48
2022/12/14 06:48:39;;;;;;;41.90;19.30;;;-1.60;66.60;;;;;;2294062;58;21654;-45
2022/12/14 06:51:07;;;;;;;46.08;21.92;;;-1.60;66.70;;;;;;2294472;58;21036;-48
2022/12/14 06:53:35;;;;;;;38.17;17.98;;;-1.60;66.60;;;;;;2294135;58;21040;-45
2022/12/14 06:56:06;;;;;;;43.83;21.48;;;-1.60;66.60;;;;;;2294313;58;21170;-44
2022/12/14 06:58:34;;;;;;;42.03;19.17;;;-1.60;66.50;;;;;;2294266;58;21107;-47
2022/12/14 07:01:02;;;;;;;44.22;19.98;;;-1.60;66.30;;;;;;2294170;58;21167;-45
2022/12/14 07:03:29;;;;;;;45.78;19.70;;;-1.60;66.30;;;;;;2292035;58;21064;-44
2022/12/14 07:05:57;;;;;;;47.80;21.75;;;-1.60;66.40;;;;;;2292954;58;21143;-44
2022/12/14 07:08:25;;;;;;;39.53;19.40;;;-1.60;66.40;;;;;;2292585;58;21163;-47
2022/12/14 07:10:52;;;;;;;50.42;20.45;;;-1.60;66.40;;;;;;2292742;58;21624;-46
2022/12/14 07:13:19;;;;;;;39.78;19.08;;;-1.60;66.40;;;;;;2292784;58;21143;-44
2022/12/14 07:15:52;;;;;;;36.92;18.80;;;-1.60;66.30;;;;;;2293036;58;21203;-46
2022/12/14 07:18:19;;;;;;;31.23;15.20;;;-1.70;66.00;;;;;;2293105;58;21064;-44
2022/12/14 07:20:55;;;;;;;42.67;20.12;;;-1.60;66.10;;;;;;2290770;58;21068;-50
2022/12/14 07:23:23;;;;;;;40.17;18.85;;;-1.60;66.00;;;;;;2293346;58;21548;-46
2022/12/14 07:25:51;;;;;;;41.58;19.37;;;-1.70;66.00;;;;;;2292769;58;21548;-43
2022/12/14 07:28:19;;;;;;;40.67;18.60;;;-1.70;66.40;;;;;;2292980;58;21724;-46
2022/12/14 07:30:46;;;;;;;43.40;19.90;;;-1.70;66.30;;;;;;2292792;58;21079;-45
2022/12/14 07:33:13;;;;;;;39.75;19.73;;;-1.70;66.30;;;;;;2292562;58;21573;-48
2022/12/14 07:35:40;;;;;;;42.55;20.98;;;-1.70;66.30;;;;;;2292566;58;22105;-50
2022/12/14 07:38:07;;;;;;;45.10;19.67;;;-1.70;66.30;;;;;;2292909;58;21083;-48
2022/12/14 07:40:35;;;;;;;45.90;18.45;;;-1.70;66.40;;;;;;2293308;58;21152;-47
2022/12/14 07:45:38;;;;;;;42.05;20.12;;;-1.70;66.40;;;;;;2331003;57;22175;-47
2022/12/14 07:48:07;;;;;;;44.13;19.40;;;-1.70;66.30;;;;;;2345945;57;21037;-48
2022/12/14 07:50:34;;;;;;;39.85;18.80;;;-1.70;66.10;;;;;;2345372;57;21054;-45
2022/12/14 07:53:01;;;;;;;39.15;19.40;;;-1.70;65.90;;;;;;2345764;57;22132;-45
2022/12/14 07:55:29;;;;;;;44.33;20.55;;;-1.70;66.00;;;;;;2346532;57;21046;-46
2022/12/14 07:57:56;;;;;;;45.40;21.33;;;-1.70;66.10;;;;;;2345733;57;21552;-46
2022/12/14 08:00:23;;;;;;;47.40;20.25;;;-1.70;66.10;;;;;;2346635;57;21034;-45
2022/12/14 08:02:53;;;;;;;42.65;20.27;;;-1.70;65.90;;;;;;2343758;57;21058;-48
2022/12/14 08:05:21;;;;;;;43.45;20.62;;;-1.70;65.90;;;;;;2345849;57;21549;-46
2022/12/14 08:07:48;;;;;;;39.08;19.70;;;-1.70;65.90;;;;;;2347193;57;21030;-47
2022/12/14 08:10:15;;;;;;;42.90;20.12;;;-1.70;65.90;;;;;;2347009;57;21112;-47
2022/12/14 08:12:42;;;;;;;45.38;20.27;;;-1.70;65.80;;;;;;2346680;57;21112;-48
2022/12/14 08:15:10;;;;;;;44.22;20.12;;;-1.70;65.90;;;;;;2346607;57;21046;-46
2022/12/14 08:17:37;;;;;;;42.62;17.95;;;-1.70;66.10;;;;;;2346707;57;22324;-48
2022/12/14 08:20:06;;;;;;;39.75;19.77;;;-1.70;66.30;;;;;;2344703;57;21113;-48
2022/12/14 08:22:33;;;;;;;41.10;19.62;;;-1.70;66.30;;;;;;2346529;57;21053;-48
2022/12/14 08:25:00;;;;;;;40.58;19.65;;;-1.70;66.20;;;;;;2346184;57;21089;-44
2022/12/14 08:27:30;;;;;;;45.38;20.15;;;-1.60;66.40;;;;;;2346300;57;21553;-47
2022/12/14 08:29:57;;;;;;;46.20;19.92;;;-1.60;66.40;;;;;;2346073;57;21768;-48
2022/12/14 08:32:24;;;;;;;43.60;20.83;;;-1.60;66.40;;;;;;2345796;57;21041;-46
2022/12/14 08:34:51;;;;;;;41.58;19.17;;;-1.70;66.20;;;;;;2344997;57;21596;-47
2022/12/14 08:37:18;;;;;;;39.38;19.12;;;-1.70;66.30;;;;;;2344309;57;21593;-45
2022/12/14 08:39:45;;;;;;;45.35;20.40;;;-1.60;66.40;;;;;;2345991;57;21594;-45
2022/12/14 08:42:13;;;;;;;42.92;19.62;;;-1.60;66.50;;;;;;2346187;57;21089;-47
2022/12/14 08:44:40;;;;;;;39.60;18.45;;;-1.60;66.50;;;;;;2344078;56;21045;-50
2022/12/14 08:47:07;;;;;;;35.38;17.87;;;-1.60;66.40;;;;;;2344906;57;21081;-45
2022/12/14 08:52:10;;;;;;;44.55;23.73;;;-1.60;66.30;;;;;;2305896;57;27891;-43
2022/12/14 08:54:38;;;;;;;37.85;18.58;;;-1.90;67.20;;;;;;2345389;57;21220;-47
2022/12/14 08:57:05;;;;;;;36.33;17.75;;;-1.60;67.60;;;;;;2346624;57;21058;-46
2022/12/14 08:59:32;;;;;;;41.17;20.02;;;-1.50;67.10;;;;;;2347093;57;21030;-45
2022/12/14 09:01:59;;;;;;;38.97;18.98;;;-1.40;66.70;;;;;;2347278;57;21030;-48
2022/12/14 09:04:26;;;;;;;39.17;18.67;;;-1.40;66.20;;;;;;2346044;57;21036;-46
2022/12/14 09:06:54;;;;;;;38.70;18.55;;;-1.40;66.10;;;;;;2346077;57;21105;-48
2022/12/14 09:09:21;;;;;;;38.13;18.70;;;-1.40;66.10;;;;;;2346207;57;21105;-45
2022/12/14 09:11:48;;;;;;;42.92;19.60;;;-1.40;66.10;;;;;;2345907;57;21065;-48
2022/12/14 09:14:15;;;;;;;40.90;20.48;;;-1.40;66.10;;;;;;2346114;57;21081;-47
2022/12/14 09:16:42;;;;;;;35.85;18.37;;;-1.40;65.90;;;;;;2345363;57;22074;-46
2022/12/14 09:19:09;;;;;;;33.47;17.30;;;-1.40;66.00;;;;;;2344841;57;21530;-47
2022/12/14 09:21:37;;;;;;;39.63;17.52;;;-1.30;66.10;;;;;;2345859;57;21053;-48
2022/12/14 09:24:05;;;;;;;38.97;18.00;;;-1.30;66.10;;;;;;2346155;57;21121;-45
2022/12/14 09:26:33;;;;;;;39.10;18.55;;;-1.30;66.20;;;;;;2348135;57;21518;-46
2022/12/14 09:29:00;;;;;;;36.63;17.90;;;-1.30;66.20;;;;;;2348085;57;21033;-45
2022/12/14 09:31:27;;;;;;;40.12;16.45;;;-1.30;66.20;;;;;;2348304;57;21561;-46
2022/12/14 09:33:55;;;;;;;35.97;17.87;;;-1.30;66.30;;;;;;2348415;57;21077;-50
2022/12/14 09:36:24;;;;;;;35.97;17.08;;;-1.20;66.40;;;;;;2348065;57;21045;-49
2022/12/14 09:38:54;;;;;;;37.63;18.45;;;-1.20;66.30;;;;;;2347106;57;21050;-46
2022/12/14 09:41:35;;;;;;;42.33;18.50;;;-1.20;66.40;;;;;;2346496;57;21042;-47
2022/12/14 09:44:12;;;;;;;38.95;18.62;;;-1.20;66.40;;;;;;2347080;57;21173;-47
2022/12/14 09:46:51;;;;;;;35.38;17.62;;;-1.20;66.20;;;;;;2346541;57;21648;-48
2022/12/14 09:49:26;;;;;;;38.30;18.13;;;-1.20;66.30;;;;;;2346953;57;21577;-49
2022/12/14 09:51:55;;;;;;;32.85;16.45;;;-1.20;66.20;;;;;;2347284;57;21050;-45
2022/12/14 09:54:25;;;;;;;37.83;18.48;;;-1.20;66.50;;;;;;2347510;57;21577;-48
2022/12/14 09:56:57;;;;;;;39.65;19.85;;;-1.20;66.80;;;;;;2347703;57;21046;-44
2022/12/14 09:59:27;;;;;;;35.28;17.30;;;-1.10;67.00;;;;;;2347260;57;21110;-45
2022/12/14 10:02:00;;;;;;;37.20;17.80;;;-1.10;67.10;;;;;;2346317;57;21073;-46
2022/12/14 10:04:41;;;;;;;37.92;18.77;;;-1.10;67.10;;;;;;2345913;57;21537;-47
2022/12/14 10:07:17;;;;;;;40.03;17.98;;;-1.10;67.20;;;;;;2345528;57;21026;-46
2022/12/14 10:09:52;;;;;;;39.55;18.02;;;-1.10;67.10;;;;;;2345834;57;21585;-44
2022/12/14 10:12:34;;;;;;;37.55;16.90;;;-1.00;67.10;;;;;;2346126;57;21096;-48
2022/12/14 10:15:09;;;;;;;33.23;17.70;;;-1.00;66.90;;;;;;2345581;57;21542;-47
2022/12/14 10:17:58;;;;;;;33.00;16.15;;;-0.90;66.80;;;;;;2347331;57;21014;-45
2022/12/14 10:20:34;;;;;;;38.00;17.48;;;-0.90;66.60;;;;;;2346871;57;21085;-46
2022/12/14 10:25:39;;;;;;;34.78;17.10;;;-0.90;67.30;;;;;;2378748;56;22093;-45
2022/12/14 10:28:13;;;;;;;36.17;17.15;;;-0.80;66.50;;;;;;2374728;56;21625;-46
2022/12/14 10:30:41;;;;;;;35.80;16.30;;;-0.80;66.50;;;;;;2375767;56;21042;-45
2022/12/14 10:33:19;;;;;;;31.52;16.67;;;-0.80;66.70;;;;;;2373448;56;21110;-49
2022/12/14 10:35:50;;;;;;;35.05;17.15;;;-0.80;66.60;;;;;;2373773;56;21532;-46
2022/12/14 10:38:26;;;;;;;31.05;15.15;;;-0.70;66.80;;;;;;2374529;56;21955;-47
2022/12/14 10:40:58;;;;;;;38.42;16.98;;;-0.70;66.80;;;;;;2374857;56;21601;-49
2022/12/14 10:43:39;;;;;;;35.25;17.73;;;-0.70;66.60;;;;;;2374821;56;21602;-48
2022/12/14 10:46:19;;;;;;;29.75;15.93;;;-0.70;66.50;;;;;;2375200;56;21547;-48
2022/12/14 10:48:55;;;;;;;37.40;16.50;;;-0.70;66.50;;;;;;2375522;56;21034;-48
2022/12/14 10:51:29;;;;;;;34.00;17.20;;;-0.60;66.50;;;;;;2374179;56;21676;-46
2022/12/14 10:54:00;;;;;;;32.50;15.77;;;-0.60;66.40;;;;;;2374802;56;21050;-49
2022/12/14 10:56:31;;;;;;;33.33;16.12;;;-0.60;66.40;;;;;;2374889;56;21030;-45
2022/12/14 10:59:25;;;;;;;35.60;16.98;;;-0.60;66.40;;;;;;2374262;56;21090;-48
2022/12/14 11:01:58;;;;;;;28.55;14.70;;;-0.50;66.40;;;;;;2374260;56;21641;-45
2022/12/14 11:04:28;;;;;;;;;;;-0.50;66.50;;;;;;2377845;56;21511;-49
2022/12/14 11:06:57;;;;;;;29.33;14.50;;;-0.40;66.70;;;;;;2373999;56;20388;-46
2022/12/14 11:09:25;;;;;;;29.17;15.07;;;-0.40;66.30;;;;;;2374433;56;21106;-50
2022/12/14 11:11:58;;;;;;;30.02;14.85;;;-0.50;66.30;;;;;;2375425;56;21660;-45
2022/12/14 11:14:26;;;;;;;31.60;15.50;;;-0.50;66.50;;;;;;2375550;56;21023;-48
2022/12/14 11:16:53;;;;;;;32.60;16.37;;;-0.40;66.70;;;;;;2375674;56;21106;-52
2022/12/14 11:19:23;;;;;;;36.55;19.12;;;-0.40;66.60;;;;;;2375258;56;21027;-48
2022/12/14 11:22:04;;;;;;;34.83;18.25;;;-0.40;66.60;;;;;;2374632;56;21097;-46
2022/12/14 11:24:31;;;;;;;33.30;16.30;;;-0.40;66.50;;;;;;2372143;56;21051;-50
2022/12/14 11:27:01;;;;;;;32.28;16.80;;;-0.30;66.50;;;;;;2373938;56;21089;-49
2022/12/14 11:29:31;;;;;;;32.72;16.67;;;-0.30;66.30;;;;;;2373844;56;21118;-46
2022/12/14 11:31:59;;;;;;;32.60;17.17;;;-0.30;66.30;;;;;;2373616;56;22178;-49
2022/12/14 11:34:32;;;;;;;29.12;16.12;;;-0.30;66.40;;;;;;2374101;56;21825;-45
2022/12/14 11:39:50;;;;;;;34.40;16.87;;;-0.30;66.40;;;;;;2328070;57;22064;-46
2022/12/14 11:42:18;;;;;;;31.15;15.68;;;-0.20;66.50;;;;;;2346640;57;21121;-45
2022/12/14 11:44:47;;;;;;;33.50;17.83;;;-0.20;66.40;;;;;;2346342;57;21605;-48
2022/12/14 11:47:16;;;;;;;34.88;16.65;;;-0.20;66.40;;;;;;2345840;57;21077;-48
2022/12/14 11:49:46;;;;;;;34.53;17.60;;;-0.10;66.40;;;;;;2344836;57;21676;-47
2022/12/14 11:52:17;;;;;;;29.60;15.63;;;-0.10;66.50;;;;;;2344340;57;21525;-47
2022/12/14 11:54:46;;;;;;;34.55;17.23;;;-0.10;67.20;;;;;;2342950;57;21061;-46
2022/12/14 11:57:22;;;;;;;38.50;17.30;;;-0.10;66.50;;;;;;2345917;57;21026;-49
2022/12/14 11:59:53;;;;;;;33.85;17.33;;;-0.10;66.50;;;;;;2344984;57;21085;-45
2022/12/14 12:02:26;;;;;;;31.77;17.27;;;0.00;66.60;;;;;;2346811;57;21018;-48
2022/12/14 12:04:56;;;;;;;34.08;17.00;;;0.00;66.60;;;;;;2346965;57;21038;-50
2022/12/14 12:07:31;;;;;;;34.45;16.37;;;0.00;66.70;;;;;;2346689;57;21017;-46
2022/12/14 12:10:14;;;;;;;31.58;15.98;;;0.10;66.70;;;;;;2347270;57;21017;-47
2022/12/14 12:12:50;;;;;;;33.75;17.42;;;0.10;66.80;;;;;;2346127;57;21117;-46
2022/12/14 12:15:21;;;;;;;34.92;17.50;;;0.10;66.70;;;;;;2345494;57;21108;-49
2022/12/14 12:17:52;;;;;;;37.38;17.33;;;0.20;66.70;;;;;;2346462;57;21548;-46
2022/12/14 12:20:33;;;;;;;29.55;16.12;;;0.20;66.70;;;;;;2346892;57;21137;-46
2022/12/14 12:23:06;;;;;;;34.08;17.73;;;0.20;66.70;;;;;;2346434;57;21117;-46
2022/12/14 12:25:35;;;;;;;31.15;17.33;;;0.20;66.70;;;;;;2345902;57;21056;-49
2022/12/14 12:28:11;;;;;;;32.58;16.73;;;0.30;66.60;;;;;;2346301;57;21532;-47
2022/12/14 12:30:42;;;;;;;34.80;17.30;;;0.30;66.40;;;;;;2346316;57;22418;-46
2022/12/14 12:33:22;;;;;;;28.85;16.60;;;0.30;66.30;;;;;;2346582;57;21080;-44
2022/12/14 12:35:53;;;;;;;31.50;15.57;;;0.30;66.50;;;;;;2345224;57;21133;-46
2022/12/14 12:38:28;;;;;;;28.12;14.63;;;0.40;66.60;;;;;;2346570;57;21592;-47
2022/12/14 12:41:01;;;;;;;34.67;17.33;;;0.40;66.60;;;;;;2346249;57;21609;-44
2022/12/14 12:43:34;;;;;;;29.20;15.45;;;0.40;66.60;;;;;;2345970;57;21056;-44
2022/12/14 12:46:08;;;;;;;29.17;15.38;;;0.50;66.70;;;;;;2346557;57;21096;-45
2022/12/14 12:48:42;;;;;;;31.67;16.02;;;0.50;66.70;;;;;;2345978;57;21585;-48
2022/12/14 12:51:14;;;;;;;36.25;18.33;;;0.50;66.70;;;;;;2343907;57;21561;-47
2022/12/14 12:53:46;;;;;;;35.60;16.03;;;0.60;66.60;;;;;;2344274;57;21061;-47
2022/12/14 12:56:19;;;;;;;32.08;17.10;;;0.60;66.50;;;;;;2346708;57;21021;-45
2022/12/14 12:58:49;;;;;;;32.45;17.25;;;0.60;66.50;;;;;;2347120;57;21022;-48
2022/12/14 13:01:23;;;;;;;32.55;17.23;;;0.60;66.50;;;;;;2346879;57;21026;-44
2022/12/14 13:03:54;;;;;;;35.50;17.98;;;0.60;66.30;;;;;;2345602;57;21046;-48
2022/12/14 13:06:27;;;;;;;31.40;16.20;;;0.70;66.20;;;;;;2345800;57;21050;-48
2022/12/14 13:11:37;;;;;;;30.85;16.25;;;0.70;66.00;;;;;;2325596;57;22119;-44
2022/12/14 13:14:14;;;;;;;28.17;15.00;;;0.70;65.90;;;;;;2351677;56;21578;-44
2022/12/14 13:16:42;;;;;;;28.30;16.23;;;0.70;66.00;;;;;;2372071;56;21058;-50